createdAt,value
2019-03-20T00:05:03.756Z,9.40
2019-03-20T00:10:08.606Z,9.30
2019-03-20T00:15:12.777Z,9.60
2019-03-20T00:20:16.687Z,9.60
2019-03-20T00:25:20.548Z,9.70
2019-03-20T00:30:24.460Z,9.80
2019-03-20T00:35:28.575Z,9.70
2019-03-20T00:40:32.448Z,9.80
2019-03-20T00:45:36.631Z,9.60
2019-03-20T00:50:41.056Z,9.50
2019-03-20T00:55:44.923Z,9.60
2019-03-20T01:00:49.063Z,9.30
2019-03-20T01:05:52.979Z,9.50
2019-03-20T01:10:56.819Z,9.20
2019-03-20T01:16:01.076Z,9.50
2019-03-20T01:21:05.087Z,9.20
2019-03-20T01:26:09.187Z,9.10
2019-03-20T01:31:13.127Z,9.40
2019-03-20T01:36:17.253Z,9.00
2019-03-20T01:41:21.091Z,9.40
2019-03-20T01:46:25.208Z,9.20
2019-03-20T01:51:29.577Z,9.00
2019-03-20T01:56:33.856Z,9.20
2019-03-20T02:01:37.730Z,9.00
2019-03-20T02:06:41.823Z,8.90
2019-03-20T02:11:45.810Z,9.20
2019-03-20T02:16:49.960Z,8.90
2019-03-20T02:21:53.882Z,9.00
2019-03-20T02:26:58.056Z,9.20
2019-03-20T02:32:02.275Z,9.20
2019-03-20T02:37:06.516Z,9.10
2019-03-20T02:42:10.893Z,9.00
2019-03-20T02:47:15.545Z,9.30
2019-03-20T02:52:19.766Z,9.20
2019-03-20T02:57:24.137Z,9.20
2019-03-20T03:02:28.250Z,9.20
2019-03-20T03:07:32.198Z,9.30
2019-03-20T03:12:36.145Z,9.20
2019-03-20T03:17:40.344Z,8.90
2019-03-20T03:22:44.623Z,8.90
2019-03-20T03:27:48.865Z,8.90
2019-03-20T03:32:53.020Z,9.00
2019-03-20T03:37:57.015Z,9.00
2019-03-20T03:43:00.872Z,9.20
2019-03-20T03:48:04.917Z,8.90
2019-03-20T03:53:09.039Z,8.70
2019-03-20T03:58:13.161Z,8.70
2019-03-20T04:03:17.260Z,9.00
2019-03-20T04:08:21.707Z,8.90
2019-03-20T04:13:25.632Z,9.00
2019-03-20T04:18:29.776Z,8.90
2019-03-20T04:23:34.212Z,8.90
2019-03-20T04:28:38.736Z,8.80
2019-03-20T04:33:42.684Z,9.10
2019-03-20T04:38:46.940Z,8.90
2019-03-20T04:43:50.955Z,8.70
2019-03-20T04:48:54.834Z,8.60
2019-03-20T04:53:58.955Z,8.90
2019-03-20T04:59:03.096Z,8.90
2019-03-20T05:04:07.399Z,9.00
2019-03-20T05:09:11.531Z,8.90
2019-03-20T05:14:15.578Z,8.90
2019-03-20T05:19:19.872Z,8.70
2019-03-20T05:24:24.003Z,8.90
2019-03-20T05:29:28.219Z,8.70
2019-03-20T05:34:32.753Z,8.60
2019-03-20T05:39:36.937Z,8.60
2019-03-20T05:44:41.218Z,8.70
2019-03-20T05:49:45.748Z,8.60
2019-03-20T05:54:49.744Z,8.60
2019-03-20T05:59:53.681Z,8.50
2019-03-20T06:04:57.664Z,8.30
2019-03-20T06:10:01.614Z,8.60
2019-03-20T06:15:05.922Z,8.20
2019-03-20T06:20:10.073Z,8.50
2019-03-20T06:25:14.078Z,8.40
2019-03-20T06:30:18.094Z,8.50
2019-03-20T06:35:21.962Z,8.80
2019-03-20T06:40:25.945Z,8.20
2019-03-20T06:45:30.187Z,8.30
2019-03-20T06:50:34.519Z,8.60
2019-03-20T06:55:38.573Z,8.30
2019-03-20T07:01:10.131Z,8.60
2019-03-20T07:06:31.328Z,8.20
2019-03-20T07:11:39.278Z,8.60
2019-03-20T07:16:43.501Z,8.50
2019-03-20T07:21:47.411Z,8.50
2019-03-20T07:26:51.268Z,8.50
2019-03-20T07:31:55.276Z,8.40
2019-03-20T07:36:59.540Z,8.50
2019-03-20T07:42:03.587Z,8.60
2019-03-20T07:47:07.819Z,8.60
2019-03-20T07:52:12.190Z,8.60
2019-03-20T07:57:16.074Z,8.50
2019-03-20T08:02:20.209Z,8.60
2019-03-20T08:07:24.214Z,8.60
2019-03-20T08:12:28.227Z,8.60
2019-03-20T08:17:32.407Z,8.60
2019-03-20T08:22:36.274Z,8.50
2019-03-20T08:27:40.137Z,8.90
2019-03-20T08:32:44.399Z,8.90
2019-03-20T08:37:48.843Z,9.10
2019-03-20T08:42:52.884Z,9.00
2019-03-20T08:47:56.894Z,9.00
2019-03-20T08:53:01.839Z,9.30
2019-03-20T08:58:05.842Z,9.40
2019-03-20T09:03:09.723Z,9.50
2019-03-20T09:08:14.027Z,9.20
2019-03-20T09:13:17.966Z,9.30
2019-03-20T09:18:21.939Z,9.60
2019-03-20T09:23:25.840Z,9.50
2019-03-20T09:28:30.067Z,9.60
2019-03-20T09:33:34.343Z,9.90
2019-03-20T09:38:43.388Z,9.80
2019-03-20T09:43:43.967Z,10.00
2019-03-20T09:48:48.166Z,10.00
2019-03-20T09:53:52.142Z,9.90
2019-03-20T09:58:56.014Z,10.00
2019-03-20T10:04:00.203Z,10.20
2019-03-20T10:09:06.536Z,10.20
2019-03-20T10:14:10.548Z,10.20
2019-03-20T10:19:14.426Z,10.30
2019-03-20T10:24:18.390Z,10.30
2019-03-20T10:29:22.407Z,10.50
2019-03-20T10:34:26.607Z,10.50
2019-03-20T10:39:30.675Z,10.50
2019-03-20T10:44:34.823Z,10.70
2019-03-20T10:49:38.813Z,10.60
2019-03-20T10:54:42.826Z,11.00
2019-03-20T10:59:47.826Z,10.70
2019-03-20T11:04:52.592Z,10.80
2019-03-20T11:09:57.113Z,10.70
2019-03-20T11:15:01.063Z,10.80
2019-03-20T11:20:06.070Z,11.10
2019-03-20T11:25:11.183Z,11.10
2019-03-20T11:30:21.058Z,11.20
2019-03-20T11:35:25.386Z,11.20
2019-03-20T11:40:29.741Z,11.30
2019-03-20T11:45:34.021Z,11.20
2019-03-20T11:50:38.385Z,11.90
2019-03-20T11:55:42.666Z,12.60
2019-03-20T12:00:46.691Z,12.90
2019-03-20T12:05:51.048Z,12.60
2019-03-20T12:10:54.927Z,12.90
2019-03-20T12:15:58.812Z,13.00
2019-03-20T12:21:03.131Z,12.80
2019-03-20T12:26:07.247Z,12.90
2019-03-20T12:31:11.476Z,12.80
2019-03-20T12:36:15.427Z,12.80
2019-03-20T12:41:19.628Z,12.90
2019-03-20T12:46:23.706Z,12.90
2019-03-20T12:51:27.640Z,12.80
2019-03-20T12:56:31.774Z,12.80
2019-03-20T13:01:36.035Z,12.50
2019-03-20T13:06:43.324Z,12.80
2019-03-20T13:11:47.327Z,12.90
2019-03-20T13:16:51.587Z,13.00
2019-03-20T13:21:55.951Z,12.90
2019-03-20T13:26:59.995Z,12.80
2019-03-20T13:32:04.035Z,12.90
2019-03-20T13:37:08.324Z,12.90
2019-03-20T13:42:12.362Z,12.60
2019-03-20T13:47:17.035Z,12.70
2019-03-20T13:52:21.151Z,12.90
2019-03-20T13:57:25.581Z,12.80
2019-03-20T14:02:29.914Z,12.80
2019-03-20T14:07:34.036Z,12.80
2019-03-20T14:12:38.232Z,12.80
2019-03-20T14:17:42.697Z,12.80
2019-03-20T14:22:46.832Z,12.90
2019-03-20T14:27:51.036Z,12.90
2019-03-20T14:32:55.451Z,12.80
2019-03-20T14:37:59.475Z,12.90
2019-03-20T14:43:04.225Z,12.90
2019-03-20T14:48:08.805Z,12.70
2019-03-20T14:53:12.979Z,12.90
2019-03-20T14:58:17.561Z,12.90
2019-03-20T15:03:40.773Z,12.90
2019-03-20T15:08:45.447Z,12.70
2019-03-20T15:13:49.618Z,12.90
2019-03-20T15:18:53.855Z,12.80
2019-03-20T15:23:58.367Z,12.80
2019-03-20T15:29:02.235Z,12.90
2019-03-20T15:34:06.466Z,13.30
2019-03-20T15:39:10.691Z,13.50
2019-03-20T15:44:14.953Z,14.00
2019-03-20T15:49:19.138Z,14.40
2019-03-20T15:54:24.334Z,14.60
2019-03-20T15:59:29.101Z,14.80
2019-03-20T16:04:33.166Z,14.90
2019-03-20T16:09:37.126Z,14.80
2019-03-20T16:14:41.018Z,15.00
2019-03-20T16:19:45.044Z,15.20
2019-03-20T16:24:48.967Z,15.20
2019-03-20T16:29:53.148Z,15.70
2019-03-20T16:34:57.832Z,15.70
2019-03-20T16:40:01.767Z,16.00
2019-03-20T16:45:07.030Z,16.00
2019-03-20T16:50:12.283Z,15.80
2019-03-20T16:55:16.334Z,15.90
2019-03-20T17:00:25.070Z,16.00
2019-03-20T17:05:29.103Z,16.10
2019-03-20T17:10:35.268Z,15.90
2019-03-20T17:15:39.295Z,16.00
2019-03-20T17:20:43.324Z,16.30
2019-03-20T17:25:47.566Z,16.20
2019-03-20T17:30:51.666Z,16.40
2019-03-20T17:35:56.027Z,16.20
2019-03-20T17:41:00.442Z,16.40
2019-03-20T17:46:04.855Z,16.20
2019-03-20T17:51:09.242Z,16.20
2019-03-20T17:56:13.526Z,16.20
2019-03-20T18:01:17.744Z,16.40
2019-03-20T18:06:21.710Z,16.30
2019-03-20T18:11:25.854Z,16.10
2019-03-20T18:16:29.975Z,15.80
2019-03-20T18:21:34.095Z,15.70
2019-03-20T18:26:38.055Z,15.50
2019-03-20T18:31:46.063Z,15.30
2019-03-20T18:36:48.243Z,15.10
2019-03-20T18:41:57.812Z,15.60
2019-03-20T18:46:58.039Z,15.60
2019-03-20T18:52:02.156Z,15.50
2019-03-20T18:57:06.171Z,15.00
2019-03-20T19:02:10.435Z,15.00
